sensor_id;sensor_type;location;lat;lon;timestamp;temperature;humidity
19952;DHT22;10137;49.406;19.484;2023-05-10T00:02:05;4.80;99.90
19952;DHT22;10137;49.406;19.484;2023-05-10T00:04:33;4.90;99.90
19952;DHT22;10137;49.406;19.484;2023-05-10T00:07:02;4.90;99.90
19952;DHT22;10137;49.406;19.484;2023-05-10T00:09:30;4.70;99.90
19952;DHT22;10137;49.406;19.484;2023-05-10T00:11:57;4.70;99.90
19952;DHT22;10137;49.406;19.484;2023-05-10T00:14:27;4.60;99.90
19952;DHT22;10137;49.406;19.484;2023-05-10T00:16:55;4.60;99.90
19952;DHT22;10137;49.406;19.484;2023-05-10T00:19:26;4.70;99.90
19952;DHT22;10137;49.406;19.484;2023-05-10T00:21:54;4.50;99.90
19952;DHT22;10137;49.406;19.484;2023-05-10T00:24:22;4.50;99.90
19952;DHT22;10137;49.406;19.484;2023-05-10T00:26:49;4.40;99.90
19952;DHT22;10137;49.406;19.484;2023-05-10T00:29:18;4.30;99.90
19952;DHT22;10137;49.406;19.484;2023-05-10T00:31:46;4.30;99.90
19952;DHT22;10137;49.406;19.484;2023-05-10T00:34:17;4.20;99.90
19952;DHT22;10137;49.406;19.484;2023-05-10T00:36:46;4.30;99.90
19952;DHT22;10137;49.406;19.484;2023-05-10T00:39:17;4.30;99.90
19952;DHT22;10137;49.406;19.484;2023-05-10T00:41:44;4.10;99.90
19952;DHT22;10137;49.406;19.484;2023-05-10T00:44:12;4.20;99.90
19952;DHT22;10137;49.406;19.484;2023-05-10T00:46:41;4.20;99.90
19952;DHT22;10137;49.406;19.484;2023-05-10T00:49:10;4.20;99.90
19952;DHT22;10137;49.406;19.484;2023-05-10T00:51:38;4.10;99.90
19952;DHT22;10137;49.406;19.484;2023-05-10T00:54:07;3.90;99.90
19952;DHT22;10137;49.406;19.484;2023-05-10T00:56:35;3.80;99.90
19952;DHT22;10137;49.406;19.484;2023-05-10T00:59:03;3.80;99.90
19952;DHT22;10137;49.406;19.484;2023-05-10T01:01:30;3.70;99.90
19952;DHT22;10137;49.406;19.484;2023-05-10T01:03:59;3.70;99.90
19952;DHT22;10137;49.406;19.484;2023-05-10T01:06:28;3.70;99.90
19952;DHT22;10137;49.406;19.484;2023-05-10T01:08:56;3.70;99.90
19952;DHT22;10137;49.406;19.484;2023-05-10T01:11:25;3.80;99.90
19952;DHT22;10137;49.406;19.484;2023-05-10T01:13:56;3.70;99.90
19952;DHT22;10137;49.406;19.484;2023-05-10T01:16:24;3.80;99.90
19952;DHT22;10137;49.406;19.484;2023-05-10T01:18:54;3.80;99.90
19952;DHT22;10137;49.406;19.484;2023-05-10T01:21:30;3.90;99.90
19952;DHT22;10137;49.406;19.484;2023-05-10T01:24:40;3.90;99.90
19952;DHT22;10137;49.406;19.484;2023-05-10T01:27:20;3.80;99.90
19952;DHT22;10137;49.406;19.484;2023-05-10T01:30:13;3.80;99.90
19952;DHT22;10137;49.406;19.484;2023-05-10T01:32:55;3.70;99.90
19952;DHT22;10137;49.406;19.484;2023-05-10T01:35:38;3.70;99.90
19952;DHT22;10137;49.406;19.484;2023-05-10T01:38:15;3.50;99.90
19952;DHT22;10137;49.406;19.484;2023-05-10T01:40:54;3.50;99.90
19952;DHT22;10137;49.406;19.484;2023-05-10T01:43:28;3.30;99.90
19952;DHT22;10137;49.406;19.484;2023-05-10T01:46:02;3.20;99.90
19952;DHT22;10137;49.406;19.484;2023-05-10T01:48:45;3.00;99.90
19952;DHT22;10137;49.406;19.484;2023-05-10T01:51:19;2.90;99.90
19952;DHT22;10137;49.406;19.484;2023-05-10T01:53:51;2.90;99.90
19952;DHT22;10137;49.406;19.484;2023-05-10T01:56:24;2.90;99.90
19952;DHT22;10137;49.406;19.484;2023-05-10T01:58:54;2.70;99.90
19952;DHT22;10137;49.406;19.484;2023-05-10T02:01:24;2.90;99.90
19952;DHT22;10137;49.406;19.484;2023-05-10T02:03:57;2.70;99.90
19952;DHT22;10137;49.406;19.484;2023-05-10T02:06:25;2.70;99.90
19952;DHT22;10137;49.406;19.484;2023-05-10T02:08:55;2.60;99.90
19952;DHT22;10137;49.406;19.484;2023-05-10T02:11:24;2.70;99.90
19952;DHT22;10137;49.406;19.484;2023-05-10T02:13:53;2.70;99.90
19952;DHT22;10137;49.406;19.484;2023-05-10T02:16:25;2.50;99.90
19952;DHT22;10137;49.406;19.484;2023-05-10T02:18:57;2.50;99.90
19952;DHT22;10137;49.406;19.484;2023-05-10T02:21:29;2.50;99.90
19952;DHT22;10137;49.406;19.484;2023-05-10T02:23:58;2.40;99.90
19952;DHT22;10137;49.406;19.484;2023-05-10T02:26:27;2.40;99.90
19952;DHT22;10137;49.406;19.484;2023-05-10T02:28:56;2.50;99.90
19952;DHT22;10137;49.406;19.484;2023-05-10T02:31:25;2.60;99.90
19952;DHT22;10137;49.406;19.484;2023-05-10T02:33:54;2.50;99.90
19952;DHT22;10137;49.406;19.484;2023-05-10T02:36:24;2.40;99.90
19952;DHT22;10137;49.406;19.484;2023-05-10T02:38:55;2.30;99.90
19952;DHT22;10137;49.406;19.484;2023-05-10T02:41:25;2.30;99.90
19952;DHT22;10137;49.406;19.484;2023-05-10T02:43:56;2.40;99.90
19952;DHT22;10137;49.406;19.484;2023-05-10T02:46:27;2.50;99.90
19952;DHT22;10137;49.406;19.484;2023-05-10T02:48:55;2.50;99.90
19952;DHT22;10137;49.406;19.484;2023-05-10T02:51:26;2.30;99.90
19952;DHT22;10137;49.406;19.484;2023-05-10T02:53:57;2.20;99.90
19952;DHT22;10137;49.406;19.484;2023-05-10T02:56:31;2.10;99.90
19952;DHT22;10137;49.406;19.484;2023-05-10T02:59:00;2.00;99.90
19952;DHT22;10137;49.406;19.484;2023-05-10T03:01:29;2.10;99.90
19952;DHT22;10137;49.406;19.484;2023-05-10T03:03:56;2.20;99.90
19952;DHT22;10137;49.406;19.484;2023-05-10T03:06:30;2.20;99.90
19952;DHT22;10137;49.406;19.484;2023-05-10T03:09:02;2.00;99.90
19952;DHT22;10137;49.406;19.484;2023-05-10T03:11:39;1.90;99.90
19952;DHT22;10137;49.406;19.484;2023-05-10T03:14:21;2.00;99.90
19952;DHT22;10137;49.406;19.484;2023-05-10T03:17:00;2.10;99.90
19952;DHT22;10137;49.406;19.484;2023-05-10T03:19:35;2.10;99.90
19952;DHT22;10137;49.406;19.484;2023-05-10T03:22:18;2.10;99.90
19952;DHT22;10137;49.406;19.484;2023-05-10T03:24:53;2.10;99.90
19952;DHT22;10137;49.406;19.484;2023-05-10T03:27:25;2.00;99.90
19952;DHT22;10137;49.406;19.484;2023-05-10T03:29:55;2.10;99.90
19952;DHT22;10137;49.406;19.484;2023-05-10T03:32:24;2.10;99.90
19952;DHT22;10137;49.406;19.484;2023-05-10T03:34:52;1.90;99.90
19952;DHT22;10137;49.406;19.484;2023-05-10T03:37:22;2.00;99.90
19952;DHT22;10137;49.406;19.484;2023-05-10T03:39:50;2.00;99.90
19952;DHT22;10137;49.406;19.484;2023-05-10T03:42:21;2.20;99.90
19952;DHT22;10137;49.406;19.484;2023-05-10T03:44:49;2.30;99.90
19952;DHT22;10137;49.406;19.484;2023-05-10T03:47:19;2.30;99.90
19952;DHT22;10137;49.406;19.484;2023-05-10T03:49:47;2.40;99.90
19952;DHT22;10137;49.406;19.484;2023-05-10T03:52:15;2.30;99.90
19952;DHT22;10137;49.406;19.484;2023-05-10T03:54:48;2.30;99.90
19952;DHT22;10137;49.406;19.484;2023-05-10T03:57:19;2.40;99.90
19952;DHT22;10137;49.406;19.484;2023-05-10T03:59:48;2.30;99.90
19952;DHT22;10137;49.406;19.484;2023-05-10T04:02:18;2.30;99.90
19952;DHT22;10137;49.406;19.484;2023-05-10T04:04:47;2.40;99.90
19952;DHT22;10137;49.406;19.484;2023-05-10T04:07:16;2.50;99.90
19952;DHT22;10137;49.406;19.484;2023-05-10T04:09:46;2.50;99.90
19952;DHT22;10137;49.406;19.484;2023-05-10T04:12:15;2.50;99.90
19952;DHT22;10137;49.406;19.484;2023-05-10T04:14:43;2.60;99.90
19952;DHT22;10137;49.406;19.484;2023-05-10T04:17:11;2.70;99.90
19952;DHT22;10137;49.406;19.484;2023-05-10T04:19:40;2.80;99.90
19952;DHT22;10137;49.406;19.484;2023-05-10T04:22:15;2.90;99.90
19952;DHT22;10137;49.406;19.484;2023-05-10T04:24:43;2.90;99.90
19952;DHT22;10137;49.406;19.484;2023-05-10T04:27:17;3.00;99.90
19952;DHT22;10137;49.406;19.484;2023-05-10T04:29:48;3.10;99.90
19952;DHT22;10137;49.406;19.484;2023-05-10T04:32:23;3.20;99.90
19952;DHT22;10137;49.406;19.484;2023-05-10T04:34:56;3.30;99.90
19952;DHT22;10137;49.406;19.484;2023-05-10T04:37:25;3.40;99.90
19952;DHT22;10137;49.406;19.484;2023-05-10T04:39:53;3.50;99.90
19952;DHT22;10137;49.406;19.484;2023-05-10T04:42:26;3.70;99.90
19952;DHT22;10137;49.406;19.484;2023-05-10T04:44:54;3.90;99.90
19952;DHT22;10137;49.406;19.484;2023-05-10T04:47:22;4.00;99.90
19952;DHT22;10137;49.406;19.484;2023-05-10T04:49:50;4.10;99.90
19952;DHT22;10137;49.406;19.484;2023-05-10T04:52:18;4.30;99.90
19952;DHT22;10137;49.406;19.484;2023-05-10T04:54:47;4.40;99.90
19952;DHT22;10137;49.406;19.484;2023-05-10T04:57:15;4.60;99.90
19952;DHT22;10137;49.406;19.484;2023-05-10T04:59:44;4.80;99.90
19952;DHT22;10137;49.406;19.484;2023-05-10T05:02:12;5.00;99.90
19952;DHT22;10137;49.406;19.484;2023-05-10T05:04:39;5.30;99.90
19952;DHT22;10137;49.406;19.484;2023-05-10T05:07:13;5.50;99.90
19952;DHT22;10137;49.406;19.484;2023-05-10T05:09:41;5.70;99.90
19952;DHT22;10137;49.406;19.484;2023-05-10T05:12:10;5.90;99.90
19952;DHT22;10137;49.406;19.484;2023-05-10T05:14:40;6.10;99.90
19952;DHT22;10137;49.406;19.484;2023-05-10T05:17:10;6.30;99.90
19952;DHT22;10137;49.406;19.484;2023-05-10T05:19:39;6.40;99.90
19952;DHT22;10137;49.406;19.484;2023-05-10T05:22:07;6.60;99.90
19952;DHT22;10137;49.406;19.484;2023-05-10T05:24:35;6.80;99.90
19952;DHT22;10137;49.406;19.484;2023-05-10T05:27:04;6.90;99.90
19952;DHT22;10137;49.406;19.484;2023-05-10T05:29:34;7.10;99.90
19952;DHT22;10137;49.406;19.484;2023-05-10T05:32:04;7.30;99.90
19952;DHT22;10137;49.406;19.484;2023-05-10T05:34:36;7.40;99.90
19952;DHT22;10137;49.406;19.484;2023-05-10T05:37:04;7.60;99.90
19952;DHT22;10137;49.406;19.484;2023-05-10T05:39:32;7.70;99.90
19952;DHT22;10137;49.406;19.484;2023-05-10T05:42:01;7.90;99.90
19952;DHT22;10137;49.406;19.484;2023-05-10T05:44:29;8.10;99.90
19952;DHT22;10137;49.406;19.484;2023-05-10T05:46:57;8.20;99.90
19952;DHT22;10137;49.406;19.484;2023-05-10T05:49:26;8.30;99.90
19952;DHT22;10137;49.406;19.484;2023-05-10T05:51:58;8.30;99.90
19952;DHT22;10137;49.406;19.484;2023-05-10T05:54:26;8.50;99.90
19952;DHT22;10137;49.406;19.484;2023-05-10T05:56:55;8.60;99.90
19952;DHT22;10137;49.406;19.484;2023-05-10T05:59:23;8.70;99.90
19952;DHT22;10137;49.406;19.484;2023-05-10T06:01:52;8.90;99.90
19952;DHT22;10137;49.406;19.484;2023-05-10T06:04:22;9.00;99.90
19952;DHT22;10137;49.406;19.484;2023-05-10T06:06:50;9.10;99.90
19952;DHT22;10137;49.406;19.484;2023-05-10T06:09:19;9.20;99.90
19952;DHT22;10137;49.406;19.484;2023-05-10T06:11:47;9.40;99.90
19952;DHT22;10137;49.406;19.484;2023-05-10T06:14:15;9.50;99.90
19952;DHT22;10137;49.406;19.484;2023-05-10T06:16:44;9.70;99.90
19952;DHT22;10137;49.406;19.484;2023-05-10T06:19:12;9.80;99.90
19952;DHT22;10137;49.406;19.484;2023-05-10T06:21:40;10.00;99.90
19952;DHT22;10137;49.406;19.484;2023-05-10T06:24:08;10.10;99.90
19952;DHT22;10137;49.406;19.484;2023-05-10T06:26:38;10.10;99.90
19952;DHT22;10137;49.406;19.484;2023-05-10T06:29:05;10.50;99.90
19952;DHT22;10137;49.406;19.484;2023-05-10T06:31:32;10.60;99.90
19952;DHT22;10137;49.406;19.484;2023-05-10T06:33:59;10.70;99.90
19952;DHT22;10137;49.406;19.484;2023-05-10T06:36:26;10.80;99.90
19952;DHT22;10137;49.406;19.484;2023-05-10T06:38:53;10.80;99.90
19952;DHT22;10137;49.406;19.484;2023-05-10T06:41:21;11.00;99.90
19952;DHT22;10137;49.406;19.484;2023-05-10T06:43:49;11.20;99.90
19952;DHT22;10137;49.406;19.484;2023-05-10T06:46:17;11.00;99.90
19952;DHT22;10137;49.406;19.484;2023-05-10T06:48:48;11.40;99.90
19952;DHT22;10137;49.406;19.484;2023-05-10T06:51:15;11.50;99.90
19952;DHT22;10137;49.406;19.484;2023-05-10T06:53:44;11.50;99.90
19952;DHT22;10137;49.406;19.484;2023-05-10T06:56:12;11.70;99.90
19952;DHT22;10137;49.406;19.484;2023-05-10T06:58:41;11.70;99.90
19952;DHT22;10137;49.406;19.484;2023-05-10T07:01:10;11.60;99.60
19952;DHT22;10137;49.406;19.484;2023-05-10T07:03:42;11.70;99.90
19952;DHT22;10137;49.406;19.484;2023-05-10T07:06:15;11.90;99.90
19952;DHT22;10137;49.406;19.484;2023-05-10T07:08:43;12.20;99.90
19952;DHT22;10137;49.406;19.484;2023-05-10T07:11:12;12.40;99.90
19952;DHT22;10137;49.406;19.484;2023-05-10T07:13:40;12.60;99.90
19952;DHT22;10137;49.406;19.484;2023-05-10T07:16:12;12.70;99.00
19952;DHT22;10137;49.406;19.484;2023-05-10T07:18:40;12.90;98.80
19952;DHT22;10137;49.406;19.484;2023-05-10T07:21:07;13.00;98.70
19952;DHT22;10137;49.406;19.484;2023-05-10T07:23:36;13.10;98.70
19952;DHT22;10137;49.406;19.484;2023-05-10T07:26:04;13.20;98.70
19952;DHT22;10137;49.406;19.484;2023-05-10T07:28:32;13.30;98.70
19952;DHT22;10137;49.406;19.484;2023-05-10T07:31:00;13.40;98.40
19952;DHT22;10137;49.406;19.484;2023-05-10T07:33:29;13.30;97.20
19952;DHT22;10137;49.406;19.484;2023-05-10T07:35:58;13.50;97.50
19952;DHT22;10137;49.406;19.484;2023-05-10T07:38:26;13.60;95.90
19952;DHT22;10137;49.406;19.484;2023-05-10T07:40:54;13.70;95.00
19952;DHT22;10137;49.406;19.484;2023-05-10T07:43:22;13.70;93.80
19952;DHT22;10137;49.406;19.484;2023-05-10T07:45:51;13.80;92.80
19952;DHT22;10137;49.406;19.484;2023-05-10T07:48:18;14.00;93.20
19952;DHT22;10137;49.406;19.484;2023-05-10T07:50:47;14.30;93.30
19952;DHT22;10137;49.406;19.484;2023-05-10T07:53:15;14.70;92.80
19952;DHT22;10137;49.406;19.484;2023-05-10T07:55:43;14.90;92.30
19952;DHT22;10137;49.406;19.484;2023-05-10T07:58:11;15.00;89.70
19952;DHT22;10137;49.406;19.484;2023-05-10T08:00:39;15.00;90.90
19952;DHT22;10137;49.406;19.484;2023-05-10T08:03:07;15.10;90.90
19952;DHT22;10137;49.406;19.484;2023-05-10T08:05:36;15.40;90.90
19952;DHT22;10137;49.406;19.484;2023-05-10T08:08:05;15.80;91.70
19952;DHT22;10137;49.406;19.484;2023-05-10T08:10:34;16.00;90.30
19952;DHT22;10137;49.406;19.484;2023-05-10T08:13:02;16.20;86.40
19952;DHT22;10137;49.406;19.484;2023-05-10T08:15:30;16.40;85.50
19952;DHT22;10137;49.406;19.484;2023-05-10T08:17:59;16.60;87.40
19952;DHT22;10137;49.406;19.484;2023-05-10T08:20:27;16.80;84.50
19952;DHT22;10137;49.406;19.484;2023-05-10T08:22:55;17.00;83.50
19952;DHT22;10137;49.406;19.484;2023-05-10T08:25:24;17.20;81.80
19952;DHT22;10137;49.406;19.484;2023-05-10T08:27:52;17.10;77.70
19952;DHT22;10137;49.406;19.484;2023-05-10T08:30:20;17.30;80.40
19952;DHT22;10137;49.406;19.484;2023-05-10T08:32:48;17.50;79.60
19952;DHT22;10137;49.406;19.484;2023-05-10T08:35:16;18.00;77.50
19952;DHT22;10137;49.406;19.484;2023-05-10T08:37:43;17.80;74.50
19952;DHT22;10137;49.406;19.484;2023-05-10T08:40:11;18.30;79.70
19952;DHT22;10137;49.406;19.484;2023-05-10T08:42:43;18.40;72.90
19952;DHT22;10137;49.406;19.484;2023-05-10T08:45:15;18.60;74.40
19952;DHT22;10137;49.406;19.484;2023-05-10T08:47:42;18.70;75.70
19952;DHT22;10137;49.406;19.484;2023-05-10T08:50:11;18.70;74.50
19952;DHT22;10137;49.406;19.484;2023-05-10T08:52:40;18.60;72.60
19952;DHT22;10137;49.406;19.484;2023-05-10T08:55:09;18.40;72.40
19952;DHT22;10137;49.406;19.484;2023-05-10T08:57:39;18.40;74.00
19952;DHT22;10137;49.406;19.484;2023-05-10T09:00:08;18.40;71.60
19952;DHT22;10137;49.406;19.484;2023-05-10T09:02:37;18.10;68.20
19952;DHT22;10137;49.406;19.484;2023-05-10T09:05:06;18.00;67.80
19952;DHT22;10137;49.406;19.484;2023-05-10T09:07:35;18.10;72.30
19952;DHT22;10137;49.406;19.484;2023-05-10T09:10:05;18.10;69.70
19952;DHT22;10137;49.406;19.484;2023-05-10T09:12:33;17.90;68.70
19952;DHT22;10137;49.406;19.484;2023-05-10T09:15:07;17.70;70.10
19952;DHT22;10137;49.406;19.484;2023-05-10T09:17:35;17.60;71.90
19952;DHT22;10137;49.406;19.484;2023-05-10T09:20:03;17.30;72.10
19952;DHT22;10137;49.406;19.484;2023-05-10T09:22:31;17.20;72.20
19952;DHT22;10137;49.406;19.484;2023-05-10T09:25:06;17.40;72.20
19952;DHT22;10137;49.406;19.484;2023-05-10T09:27:34;17.40;72.10
19952;DHT22;10137;49.406;19.484;2023-05-10T09:30:01;17.40;73.10
19952;DHT22;10137;49.406;19.484;2023-05-10T09:32:41;17.30;72.40
19952;DHT22;10137;49.406;19.484;2023-05-10T09:35:09;17.30;71.30
19952;DHT22;10137;49.406;19.484;2023-05-10T09:37:36;17.10;71.30
19952;DHT22;10137;49.406;19.484;2023-05-10T09:40:08;17.10;72.70
19952;DHT22;10137;49.406;19.484;2023-05-10T09:42:38;17.00;72.00
19952;DHT22;10137;49.406;19.484;2023-05-10T09:45:06;16.90;69.90
19952;DHT22;10137;49.406;19.484;2023-05-10T09:47:33;16.40;69.30
19952;DHT22;10137;49.406;19.484;2023-05-10T09:50:06;16.30;68.20
19952;DHT22;10137;49.406;19.484;2023-05-10T09:52:46;16.30;69.80
19952;DHT22;10137;49.406;19.484;2023-05-10T09:55:15;16.30;70.70
19952;DHT22;10137;49.406;19.484;2023-05-10T09:57:45;16.10;69.50
19952;DHT22;10137;49.406;19.484;2023-05-10T10:00:18;16.20;69.50
19952;DHT22;10137;49.406;19.484;2023-05-10T10:02:57;16.30;72.60
19952;DHT22;10137;49.406;19.484;2023-05-10T10:05:30;16.40;72.00
19952;DHT22;10137;49.406;19.484;2023-05-10T10:08:03;16.30;72.10
19952;DHT22;10137;49.406;19.484;2023-05-10T10:10:33;16.20;71.90
19952;DHT22;10137;49.406;19.484;2023-05-10T10:13:01;16.00;71.40
19952;DHT22;10137;49.406;19.484;2023-05-10T10:15:33;15.80;73.30
19952;DHT22;10137;49.406;19.484;2023-05-10T10:18:01;15.60;71.50
19952;DHT22;10137;49.406;19.484;2023-05-10T10:20:32;15.60;72.30
19952;DHT22;10137;49.406;19.484;2023-05-10T10:23:00;15.60;73.50
19952;DHT22;10137;49.406;19.484;2023-05-10T10:25:27;15.60;72.30
19952;DHT22;10137;49.406;19.484;2023-05-10T10:28:05;15.70;72.10
19952;DHT22;10137;49.406;19.484;2023-05-10T10:30:40;15.70;72.70
19952;DHT22;10137;49.406;19.484;2023-05-10T10:33:40;15.80;71.60
19952;DHT22;10137;49.406;19.484;2023-05-10T10:36:21;15.90;73.30
19952;DHT22;10137;49.406;19.484;2023-05-10T10:38:57;15.90;73.10
19952;DHT22;10137;49.406;19.484;2023-05-10T10:41:32;16.00;76.80
19952;DHT22;10137;49.406;19.484;2023-05-10T10:44:25;15.90;78.70
19952;DHT22;10137;49.406;19.484;2023-05-10T10:47:01;15.80;75.60
19952;DHT22;10137;49.406;19.484;2023-05-10T10:49:31;16.00;75.00
19952;DHT22;10137;49.406;19.484;2023-05-10T10:52:23;16.00;73.30
19952;DHT22;10137;49.406;19.484;2023-05-10T10:54:57;16.00;71.70
19952;DHT22;10137;49.406;19.484;2023-05-10T10:57:26;16.10;72.80
19952;DHT22;10137;49.406;19.484;2023-05-10T11:00:19;16.10;73.00
19952;DHT22;10137;49.406;19.484;2023-05-10T11:02:49;16.00;73.00
19952;DHT22;10137;49.406;19.484;2023-05-10T11:05:45;15.90;73.90
19952;DHT22;10137;49.406;19.484;2023-05-10T11:08:17;16.00;73.90
19952;DHT22;10137;49.406;19.484;2023-05-10T11:10:51;16.00;74.90
19952;DHT22;10137;49.406;19.484;2023-05-10T11:13:29;16.00;72.80
19952;DHT22;10137;49.406;19.484;2023-05-10T11:15:58;15.90;72.50
19952;DHT22;10137;49.406;19.484;2023-05-10T11:18:28;16.00;72.10
19952;DHT22;10137;49.406;19.484;2023-05-10T11:20:58;16.00;71.00
19952;DHT22;10137;49.406;19.484;2023-05-10T11:23:31;16.10;72.40
19952;DHT22;10137;49.406;19.484;2023-05-10T11:26:00;16.10;75.90
19952;DHT22;10137;49.406;19.484;2023-05-10T11:28:28;16.00;75.30
19952;DHT22;10137;49.406;19.484;2023-05-10T11:30:57;16.00;74.50
19952;DHT22;10137;49.406;19.484;2023-05-10T11:33:25;16.00;73.90
19952;DHT22;10137;49.406;19.484;2023-05-10T11:35:56;15.90;72.40
19952;DHT22;10137;49.406;19.484;2023-05-10T11:38:26;15.90;71.70
19952;DHT22;10137;49.406;19.484;2023-05-10T11:40:54;15.90;71.30
19952;DHT22;10137;49.406;19.484;2023-05-10T11:43:24;15.90;68.70
19952;DHT22;10137;49.406;19.484;2023-05-10T11:45:56;16.00;69.30
19952;DHT22;10137;49.406;19.484;2023-05-10T11:48:24;16.10;68.80
19952;DHT22;10137;49.406;19.484;2023-05-10T11:50:52;16.10;68.60
19952;DHT22;10137;49.406;19.484;2023-05-10T11:53:25;16.20;69.50
19952;DHT22;10137;49.406;19.484;2023-05-10T11:56:02;16.20;70.60
19952;DHT22;10137;49.406;19.484;2023-05-10T11:58:30;16.20;68.80
19952;DHT22;10137;49.406;19.484;2023-05-10T12:00:59;16.20;68.60
19952;DHT22;10137;49.406;19.484;2023-05-10T12:03:28;16.20;66.00
19952;DHT22;10137;49.406;19.484;2023-05-10T12:05:59;16.20;66.50
19952;DHT22;10137;49.406;19.484;2023-05-10T12:08:30;16.30;66.00
19952;DHT22;10137;49.406;19.484;2023-05-10T12:11:06;16.30;67.90
19952;DHT22;10137;49.406;19.484;2023-05-10T12:13:38;16.30;67.90
19952;DHT22;10137;49.406;19.484;2023-05-10T12:16:17;16.30;66.30
19952;DHT22;10137;49.406;19.484;2023-05-10T12:18:48;16.30;65.10
19952;DHT22;10137;49.406;19.484;2023-05-10T12:21:20;16.30;65.30
19952;DHT22;10137;49.406;19.484;2023-05-10T12:23:50;16.30;64.30
19952;DHT22;10137;49.406;19.484;2023-05-10T12:26:23;16.40;64.00
19952;DHT22;10137;49.406;19.484;2023-05-10T12:28:53;16.40;64.00
19952;DHT22;10137;49.406;19.484;2023-05-10T12:31:21;16.40;65.40
19952;DHT22;10137;49.406;19.484;2023-05-10T12:33:49;16.40;65.60
19952;DHT22;10137;49.406;19.484;2023-05-10T12:36:23;16.40;66.90
19952;DHT22;10137;49.406;19.484;2023-05-10T12:39:02;16.40;67.80
19952;DHT22;10137;49.406;19.484;2023-05-10T12:41:32;16.40;67.50
19952;DHT22;10137;49.406;19.484;2023-05-10T12:44:03;16.40;68.40
19952;DHT22;10137;49.406;19.484;2023-05-10T12:46:31;16.40;67.50
19952;DHT22;10137;49.406;19.484;2023-05-10T12:48:59;16.30;67.80
19952;DHT22;10137;49.406;19.484;2023-05-10T12:51:28;16.30;68.30
19952;DHT22;10137;49.406;19.484;2023-05-10T12:53:57;16.30;68.30
19952;DHT22;10137;49.406;19.484;2023-05-10T12:56:25;16.20;69.70
19952;DHT22;10137;49.406;19.484;2023-05-10T12:58:58;16.20;69.70
19952;DHT22;10137;49.406;19.484;2023-05-10T13:01:29;16.10;70.20
19952;DHT22;10137;49.406;19.484;2023-05-10T13:03:57;16.00;68.50
19952;DHT22;10137;49.406;19.484;2023-05-10T13:06:26;16.00;68.20
19952;DHT22;10137;49.406;19.484;2023-05-10T13:08:55;16.00;70.20
19952;DHT22;10137;49.406;19.484;2023-05-10T13:11:24;15.90;67.90
19952;DHT22;10137;49.406;19.484;2023-05-10T13:13:52;15.80;67.60
19952;DHT22;10137;49.406;19.484;2023-05-10T13:16:21;15.80;69.20
19952;DHT22;10137;49.406;19.484;2023-05-10T13:18:52;15.80;68.80
19952;DHT22;10137;49.406;19.484;2023-05-10T13:21:22;15.70;68.80
19952;DHT22;10137;49.406;19.484;2023-05-10T13:23:51;15.70;68.40
19952;DHT22;10137;49.406;19.484;2023-05-10T13:26:19;15.60;68.60
19952;DHT22;10137;49.406;19.484;2023-05-10T13:28:47;15.60;70.00
19952;DHT22;10137;49.406;19.484;2023-05-10T13:31:18;15.40;71.60
19952;DHT22;10137;49.406;19.484;2023-05-10T13:33:50;15.40;72.50
19952;DHT22;10137;49.406;19.484;2023-05-10T13:36:17;15.40;72.50
19952;DHT22;10137;49.406;19.484;2023-05-10T13:38:44;15.50;73.60
19952;DHT22;10137;49.406;19.484;2023-05-10T13:41:12;15.50;73.40
19952;DHT22;10137;49.406;19.484;2023-05-10T13:43:38;15.50;72.60
19952;DHT22;10137;49.406;19.484;2023-05-10T13:46:06;15.40;72.20
19952;DHT22;10137;49.406;19.484;2023-05-10T13:48:33;15.40;71.80
19952;DHT22;10137;49.406;19.484;2023-05-10T13:51:01;15.40;72.10
19952;DHT22;10137;49.406;19.484;2023-05-10T13:53:29;15.40;71.90
19952;DHT22;10137;49.406;19.484;2023-05-10T13:55:56;15.40;72.10
19952;DHT22;10137;49.406;19.484;2023-05-10T13:58:23;15.40;72.30
19952;DHT22;10137;49.406;19.484;2023-05-10T14:00:50;15.40;72.10
19952;DHT22;10137;49.406;19.484;2023-05-10T14:03:18;15.30;71.90
19952;DHT22;10137;49.406;19.484;2023-05-10T14:06:01;15.40;72.30
19952;DHT22;10137;49.406;19.484;2023-05-10T14:08:37;15.40;71.70
19952;DHT22;10137;49.406;19.484;2023-05-10T14:11:07;15.40;71.50
19952;DHT22;10137;49.406;19.484;2023-05-10T14:13:34;15.40;70.90
19952;DHT22;10137;49.406;19.484;2023-05-10T14:16:01;15.40;70.50
19952;DHT22;10137;49.406;19.484;2023-05-10T14:18:28;15.50;70.60
19952;DHT22;10137;49.406;19.484;2023-05-10T14:20:55;15.40;70.30
19952;DHT22;10137;49.406;19.484;2023-05-10T14:23:24;15.50;70.50
19952;DHT22;10137;49.406;19.484;2023-05-10T14:25:51;15.50;70.60
19952;DHT22;10137;49.406;19.484;2023-05-10T14:28:19;15.50;71.00
19952;DHT22;10137;49.406;19.484;2023-05-10T14:30:46;15.60;70.40
19952;DHT22;10137;49.406;19.484;2023-05-10T14:33:14;15.50;70.20
19952;DHT22;10137;49.406;19.484;2023-05-10T14:35:41;15.50;70.70
19952;DHT22;10137;49.406;19.484;2023-05-10T14:38:08;15.50;70.50
19952;DHT22;10137;49.406;19.484;2023-05-10T14:40:37;15.60;70.10
19952;DHT22;10137;49.406;19.484;2023-05-10T14:45:42;15.50;69.60
19952;DHT22;10137;49.406;19.484;2023-05-10T14:48:13;15.50;69.50
19952;DHT22;10137;49.406;19.484;2023-05-10T14:50:44;15.50;70.20
19952;DHT22;10137;49.406;19.484;2023-05-10T14:53:14;15.50;71.20
19952;DHT22;10137;49.406;19.484;2023-05-10T14:55:43;15.50;71.80
19952;DHT22;10137;49.406;19.484;2023-05-10T14:58:12;15.50;72.20
19952;DHT22;10137;49.406;19.484;2023-05-10T15:00:40;15.50;73.00
19952;DHT22;10137;49.406;19.484;2023-05-10T15:03:09;15.50;71.60
19952;DHT22;10137;49.406;19.484;2023-05-10T15:05:37;15.40;72.20
19952;DHT22;10137;49.406;19.484;2023-05-10T15:08:05;15.50;71.80
19952;DHT22;10137;49.406;19.484;2023-05-10T15:10:36;15.40;72.60
19952;DHT22;10137;49.406;19.484;2023-05-10T15:13:06;15.40;72.80
19952;DHT22;10137;49.406;19.484;2023-05-10T15:15:34;15.40;72.50
19952;DHT22;10137;49.406;19.484;2023-05-10T15:18:08;15.40;72.90
19952;DHT22;10137;49.406;19.484;2023-05-10T15:20:37;15.40;72.60
19952;DHT22;10137;49.406;19.484;2023-05-10T15:23:05;15.50;72.50
19952;DHT22;10137;49.406;19.484;2023-05-10T15:25:33;15.40;72.30
19952;DHT22;10137;49.406;19.484;2023-05-10T15:28:10;15.40;72.30
19952;DHT22;10137;49.406;19.484;2023-05-10T15:30:42;15.40;72.60
19952;DHT22;10137;49.406;19.484;2023-05-10T15:33:12;15.40;73.30
19952;DHT22;10137;49.406;19.484;2023-05-10T15:35:40;15.40;73.10
19952;DHT22;10137;49.406;19.484;2023-05-10T15:38:09;15.30;73.20
19952;DHT22;10137;49.406;19.484;2023-05-10T15:40:40;15.30;73.50
19952;DHT22;10137;49.406;19.484;2023-05-10T15:43:09;15.30;72.20
19952;DHT22;10137;49.406;19.484;2023-05-10T15:45:38;15.30;72.30